sensor_id;sensor_type;location;lat;lon;timestamp;P1;durP1;ratioP1;P2;durP2;ratioP2
24157;SDS011;12316;50.904;4.200;2023-02-02T00:01:39;22.45;;;4.10;;
24157;SDS011;12316;50.904;4.200;2023-02-02T00:04:05;22.67;;;4.07;;
24157;SDS011;12316;50.904;4.200;2023-02-02T00:06:31;22.40;;;4.07;;
24157;SDS011;12316;50.904;4.200;2023-02-02T00:09:00;23.67;;;3.53;;
24157;SDS011;12316;50.904;4.200;2023-02-02T00:11:27;20.33;;;3.58;;
24157;SDS011;12316;50.904;4.200;2023-02-02T00:13:52;18.13;;;3.53;;
24157;SDS011;12316;50.904;4.200;2023-02-02T00:18:57;18.92;;;4.05;;
24157;SDS011;12316;50.904;4.200;2023-02-02T00:21:24;18.73;;;3.30;;
24157;SDS011;12316;50.904;4.200;2023-02-02T00:23:50;21.45;;;3.92;;
24157;SDS011;12316;50.904;4.200;2023-02-02T00:26:16;20.48;;;3.60;;
24157;SDS011;12316;50.904;4.200;2023-02-02T00:28:43;19.55;;;3.65;;
24157;SDS011;12316;50.904;4.200;2023-02-02T00:31:08;23.52;;;3.83;;
24157;SDS011;12316;50.904;4.200;2023-02-02T00:33:35;15.63;;;4.05;;
24157;SDS011;12316;50.904;4.200;2023-02-02T00:36:01;28.98;;;4.32;;
24157;SDS011;12316;50.904;4.200;2023-02-02T00:38:27;21.10;;;3.80;;
24157;SDS011;12316;50.904;4.200;2023-02-02T00:40:52;23.92;;;4.43;;
24157;SDS011;12316;50.904;4.200;2023-02-02T00:43:19;20.13;;;3.75;;
24157;SDS011;12316;50.904;4.200;2023-02-02T00:45:44;22.33;;;4.07;;
24157;SDS011;12316;50.904;4.200;2023-02-02T00:48:10;21.83;;;4.18;;
24157;SDS011;12316;50.904;4.200;2023-02-02T00:50:37;27.58;;;4.15;;
24157;SDS011;12316;50.904;4.200;2023-02-02T00:53:02;26.52;;;3.80;;
24157;SDS011;12316;50.904;4.200;2023-02-02T00:55:28;21.50;;;4.10;;
24157;SDS011;12316;50.904;4.200;2023-02-02T00:57:54;20.60;;;3.85;;
24157;SDS011;12316;50.904;4.200;2023-02-02T01:00:20;20.63;;;4.30;;
24157;SDS011;12316;50.904;4.200;2023-02-02T01:02:51;18.30;;;3.42;;
24157;SDS011;12316;50.904;4.200;2023-02-02T01:05:18;16.90;;;3.88;;
24157;SDS011;12316;50.904;4.200;2023-02-02T01:07:44;21.05;;;4.35;;
24157;SDS011;12316;50.904;4.200;2023-02-02T01:10:15;24.23;;;3.97;;
24157;SDS011;12316;50.904;4.200;2023-02-02T01:12:42;17.98;;;3.63;;
24157;SDS011;12316;50.904;4.200;2023-02-02T01:15:10;21.45;;;3.88;;
24157;SDS011;12316;50.904;4.200;2023-02-02T01:17:37;24.92;;;3.90;;
24157;SDS011;12316;50.904;4.200;2023-02-02T01:20:03;20.77;;;3.80;;
24157;SDS011;12316;50.904;4.200;2023-02-02T01:22:30;18.98;;;3.80;;
24157;SDS011;12316;50.904;4.200;2023-02-02T01:24:57;19.80;;;3.63;;
24157;SDS011;12316;50.904;4.200;2023-02-02T01:27:24;22.73;;;3.70;;
24157;SDS011;12316;50.904;4.200;2023-02-02T01:29:49;25.45;;;4.72;;
24157;SDS011;12316;50.904;4.200;2023-02-02T01:32:15;21.17;;;4.60;;
24157;SDS011;12316;50.904;4.200;2023-02-02T01:34:40;22.83;;;3.53;;
24157;SDS011;12316;50.904;4.200;2023-02-02T01:37:08;20.80;;;3.67;;
24157;SDS011;12316;50.904;4.200;2023-02-02T01:39:34;19.10;;;3.83;;
24157;SDS011;12316;50.904;4.200;2023-02-02T01:42:01;25.35;;;4.00;;
24157;SDS011;12316;50.904;4.200;2023-02-02T01:47:37;25.13;;;3.83;;
24157;SDS011;12316;50.904;4.200;2023-02-02T01:50:07;16.65;;;3.58;;
24157;SDS011;12316;50.904;4.200;2023-02-02T01:52:35;23.00;;;4.18;;
24157;SDS011;12316;50.904;4.200;2023-02-02T01:55:04;20.05;;;3.55;;
24157;SDS011;12316;50.904;4.200;2023-02-02T01:57:39;20.88;;;4.10;;
24157;SDS011;12316;50.904;4.200;2023-02-02T02:00:10;23.98;;;3.63;;
24157;SDS011;12316;50.904;4.200;2023-02-02T02:02:38;18.85;;;3.28;;
24157;SDS011;12316;50.904;4.200;2023-02-02T02:05:06;19.00;;;3.35;;
24157;SDS011;12316;50.904;4.200;2023-02-02T02:07:33;21.98;;;3.40;;
24157;SDS011;12316;50.904;4.200;2023-02-02T02:09:59;22.50;;;3.88;;
24157;SDS011;12316;50.904;4.200;2023-02-02T02:12:24;19.83;;;3.30;;
24157;SDS011;12316;50.904;4.200;2023-02-02T02:14:51;23.98;;;4.28;;
24157;SDS011;12316;50.904;4.200;2023-02-02T02:20:25;20.70;;;3.70;;
24157;SDS011;12316;50.904;4.200;2023-02-02T02:26:55;22.07;;;3.67;;
24157;SDS011;12316;50.904;4.200;2023-02-02T02:29:46;20.25;;;3.67;;
24157;SDS011;12316;50.904;4.200;2023-02-02T02:32:35;20.15;;;3.80;;
24157;SDS011;12316;50.904;4.200;2023-02-02T02:35:15;16.70;;;2.95;;
24157;SDS011;12316;50.904;4.200;2023-02-02T02:37:57;15.07;;;3.28;;
24157;SDS011;12316;50.904;4.200;2023-02-02T02:43:01;23.65;;;3.40;;
24157;SDS011;12316;50.904;4.200;2023-02-02T02:45:34;22.27;;;3.92;;
24157;SDS011;12316;50.904;4.200;2023-02-02T02:48:02;17.63;;;3.75;;
24157;SDS011;12316;50.904;4.200;2023-02-02T02:50:28;15.27;;;3.13;;
24157;SDS011;12316;50.904;4.200;2023-02-02T02:52:59;17.58;;;3.25;;
24157;SDS011;12316;50.904;4.200;2023-02-02T02:55:35;21.05;;;3.70;;
24157;SDS011;12316;50.904;4.200;2023-02-02T03:01:14;21.58;;;3.38;;
24157;SDS011;12316;50.904;4.200;2023-02-02T03:06:48;18.65;;;3.28;;
24157;SDS011;12316;50.904;4.200;2023-02-02T03:09:09;22.23;;;3.60;;
24157;SDS011;12316;50.904;4.200;2023-02-02T03:11:38;19.92;;;3.45;;
24157;SDS011;12316;50.904;4.200;2023-02-02T03:14:05;19.83;;;3.20;;
24157;SDS011;12316;50.904;4.200;2023-02-02T03:16:33;21.42;;;3.30;;
24157;SDS011;12316;50.904;4.200;2023-02-02T03:19:01;23.05;;;3.47;;
24157;SDS011;12316;50.904;4.200;2023-02-02T03:21:28;17.92;;;3.40;;
24157;SDS011;12316;50.904;4.200;2023-02-02T03:23:54;15.07;;;3.15;;
24157;SDS011;12316;50.904;4.200;2023-02-02T03:26:20;20.30;;;3.72;;
24157;SDS011;12316;50.904;4.200;2023-02-02T03:28:48;14.98;;;3.35;;
24157;SDS011;12316;50.904;4.200;2023-02-02T03:31:15;23.48;;;3.83;;
24157;SDS011;12316;50.904;4.200;2023-02-02T03:33:40;19.30;;;3.65;;
24157;SDS011;12316;50.904;4.200;2023-02-02T03:36:06;23.75;;;3.72;;
24157;SDS011;12316;50.904;4.200;2023-02-02T03:38:32;16.98;;;3.10;;
24157;SDS011;12316;50.904;4.200;2023-02-02T03:40:58;18.73;;;3.38;;
24157;SDS011;12316;50.904;4.200;2023-02-02T03:43:24;24.02;;;3.35;;
24157;SDS011;12316;50.904;4.200;2023-02-02T03:45:59;19.23;;;3.42;;
24157;SDS011;12316;50.904;4.200;2023-02-02T03:48:28;16.92;;;3.00;;
24157;SDS011;12316;50.904;4.200;2023-02-02T03:50:53;14.88;;;3.45;;
24157;SDS011;12316;50.904;4.200;2023-02-02T03:53:19;14.75;;;3.08;;
24157;SDS011;12316;50.904;4.200;2023-02-02T03:55:45;16.55;;;3.45;;
24157;SDS011;12316;50.904;4.200;2023-02-02T03:58:10;20.63;;;3.03;;
24157;SDS011;12316;50.904;4.200;2023-02-02T04:00:36;17.65;;;3.22;;
24157;SDS011;12316;50.904;4.200;2023-02-02T04:03:02;17.15;;;3.15;;
24157;SDS011;12316;50.904;4.200;2023-02-02T04:05:27;18.02;;;3.15;;
24157;SDS011;12316;50.904;4.200;2023-02-02T04:07:54;20.48;;;3.13;;
24157;SDS011;12316;50.904;4.200;2023-02-02T04:10:19;22.08;;;3.28;;
24157;SDS011;12316;50.904;4.200;2023-02-02T04:12:45;22.15;;;4.25;;
24157;SDS011;12316;50.904;4.200;2023-02-02T04:15:11;16.25;;;3.25;;
24157;SDS011;12316;50.904;4.200;2023-02-02T04:17:37;18.30;;;3.25;;
24157;SDS011;12316;50.904;4.200;2023-02-02T04:20:03;15.95;;;3.28;;
24157;SDS011;12316;50.904;4.200;2023-02-02T04:22:31;23.90;;;3.08;;
24157;SDS011;12316;50.904;4.200;2023-02-02T04:24:58;14.23;;;2.80;;
24157;SDS011;12316;50.904;4.200;2023-02-02T04:27:24;17.42;;;3.55;;
24157;SDS011;12316;50.904;4.200;2023-02-02T04:29:50;16.10;;;3.08;;
24157;SDS011;12316;50.904;4.200;2023-02-02T04:32:16;16.58;;;3.00;;
24157;SDS011;12316;50.904;4.200;2023-02-02T04:34:42;16.90;;;3.03;;
24157;SDS011;12316;50.904;4.200;2023-02-02T04:37:08;18.13;;;3.60;;
24157;SDS011;12316;50.904;4.200;2023-02-02T04:39:34;16.38;;;3.17;;
24157;SDS011;12316;50.904;4.200;2023-02-02T04:42:00;17.50;;;3.05;;
24157;SDS011;12316;50.904;4.200;2023-02-02T04:44:26;17.88;;;3.05;;
24157;SDS011;12316;50.904;4.200;2023-02-02T04:46:52;15.57;;;2.95;;
24157;SDS011;12316;50.904;4.200;2023-02-02T04:49:18;17.35;;;2.88;;
24157;SDS011;12316;50.904;4.200;2023-02-02T04:51:45;12.73;;;3.00;;
24157;SDS011;12316;50.904;4.200;2023-02-02T04:54:11;21.95;;;3.25;;
24157;SDS011;12316;50.904;4.200;2023-02-02T04:56:37;15.23;;;3.25;;
24157;SDS011;12316;50.904;4.200;2023-02-02T04:59:03;17.27;;;3.00;;
24157;SDS011;12316;50.904;4.200;2023-02-02T05:01:28;14.15;;;2.97;;
24157;SDS011;12316;50.904;4.200;2023-02-02T05:03:54;15.05;;;2.83;;
24157;SDS011;12316;50.904;4.200;2023-02-02T05:06:20;18.67;;;3.35;;
24157;SDS011;12316;50.904;4.200;2023-02-02T05:08:46;15.52;;;2.75;;
24157;SDS011;12316;50.904;4.200;2023-02-02T05:11:13;19.50;;;3.08;;
24157;SDS011;12316;50.904;4.200;2023-02-02T05:13:44;14.50;;;2.97;;
24157;SDS011;12316;50.904;4.200;2023-02-02T05:16:11;18.23;;;3.00;;
24157;SDS011;12316;50.904;4.200;2023-02-02T05:18:36;15.93;;;3.15;;
24157;SDS011;12316;50.904;4.200;2023-02-02T05:21:02;16.40;;;2.97;;
24157;SDS011;12316;50.904;4.200;2023-02-02T05:23:28;20.02;;;3.10;;
24157;SDS011;12316;50.904;4.200;2023-02-02T05:25:54;16.10;;;3.05;;
24157;SDS011;12316;50.904;4.200;2023-02-02T05:28:21;19.20;;;3.10;;
24157;SDS011;12316;50.904;4.200;2023-02-02T05:30:47;19.17;;;3.10;;
24157;SDS011;12316;50.904;4.200;2023-02-02T05:33:13;14.45;;;3.13;;
24157;SDS011;12316;50.904;4.200;2023-02-02T05:35:39;14.98;;;2.72;;
24157;SDS011;12316;50.904;4.200;2023-02-02T05:38:04;16.05;;;3.28;;
24157;SDS011;12316;50.904;4.200;2023-02-02T05:40:31;18.38;;;3.00;;
24157;SDS011;12316;50.904;4.200;2023-02-02T05:42:56;15.57;;;2.97;;
24157;SDS011;12316;50.904;4.200;2023-02-02T05:45:22;14.80;;;2.88;;
24157;SDS011;12316;50.904;4.200;2023-02-02T05:47:48;18.90;;;3.60;;
24157;SDS011;12316;50.904;4.200;2023-02-02T05:50:14;17.30;;;3.15;;
24157;SDS011;12316;50.904;4.200;2023-02-02T05:52:40;17.77;;;3.53;;
24157;SDS011;12316;50.904;4.200;2023-02-02T05:55:07;19.23;;;3.47;;
24157;SDS011;12316;50.904;4.200;2023-02-02T05:57:35;24.00;;;3.17;;
24157;SDS011;12316;50.904;4.200;2023-02-02T06:00:00;21.50;;;3.47;;
24157;SDS011;12316;50.904;4.200;2023-02-02T06:02:27;15.18;;;2.95;;
24157;SDS011;12316;50.904;4.200;2023-02-02T06:04:52;15.35;;;3.13;;
24157;SDS011;12316;50.904;4.200;2023-02-02T06:07:18;14.43;;;3.10;;
24157;SDS011;12316;50.904;4.200;2023-02-02T06:09:45;15.15;;;3.33;;
24157;SDS011;12316;50.904;4.200;2023-02-02T06:12:10;19.52;;;3.35;;
24157;SDS011;12316;50.904;4.200;2023-02-02T06:14:36;17.98;;;3.50;;
24157;SDS011;12316;50.904;4.200;2023-02-02T06:17:02;17.50;;;3.20;;
24157;SDS011;12316;50.904;4.200;2023-02-02T06:19:27;18.08;;;3.30;;
24157;SDS011;12316;50.904;4.200;2023-02-02T06:21:53;19.48;;;3.08;;
24157;SDS011;12316;50.904;4.200;2023-02-02T06:24:18;16.15;;;3.28;;
24157;SDS011;12316;50.904;4.200;2023-02-02T06:26:44;14.57;;;2.63;;
24157;SDS011;12316;50.904;4.200;2023-02-02T06:29:10;16.20;;;3.42;;
24157;SDS011;12316;50.904;4.200;2023-02-02T06:31:37;18.80;;;3.58;;
24157;SDS011;12316;50.904;4.200;2023-02-02T06:34:02;15.20;;;3.25;;
24157;SDS011;12316;50.904;4.200;2023-02-02T06:36:28;14.07;;;3.22;;
24157;SDS011;12316;50.904;4.200;2023-02-02T06:38:54;15.05;;;3.13;;
24157;SDS011;12316;50.904;4.200;2023-02-02T06:41:21;17.55;;;2.90;;
24157;SDS011;12316;50.904;4.200;2023-02-02T06:43:47;17.45;;;3.20;;
24157;SDS011;12316;50.904;4.200;2023-02-02T06:46:14;13.63;;;2.80;;
24157;SDS011;12316;50.904;4.200;2023-02-02T06:48:40;12.88;;;2.75;;
24157;SDS011;12316;50.904;4.200;2023-02-02T06:51:08;17.60;;;3.03;;
24157;SDS011;12316;50.904;4.200;2023-02-02T06:53:33;16.58;;;3.17;;
24157;SDS011;12316;50.904;4.200;2023-02-02T06:56:03;21.25;;;3.10;;
24157;SDS011;12316;50.904;4.200;2023-02-02T06:58:30;15.25;;;2.97;;
24157;SDS011;12316;50.904;4.200;2023-02-02T07:01:01;13.15;;;2.67;;
24157;SDS011;12316;50.904;4.200;2023-02-02T07:03:31;17.48;;;2.70;;
24157;SDS011;12316;50.904;4.200;2023-02-02T07:05:57;16.60;;;2.85;;
24157;SDS011;12316;50.904;4.200;2023-02-02T07:08:23;17.25;;;3.38;;
24157;SDS011;12316;50.904;4.200;2023-02-02T07:10:48;18.75;;;3.55;;
24157;SDS011;12316;50.904;4.200;2023-02-02T07:13:14;19.25;;;3.33;;
24157;SDS011;12316;50.904;4.200;2023-02-02T07:15:40;18.80;;;3.20;;
24157;SDS011;12316;50.904;4.200;2023-02-02T07:18:06;11.50;;;2.67;;
24157;SDS011;12316;50.904;4.200;2023-02-02T07:20:32;15.80;;;3.05;;
24157;SDS011;12316;50.904;4.200;2023-02-02T07:22:58;16.60;;;2.88;;
24157;SDS011;12316;50.904;4.200;2023-02-02T07:25:26;15.50;;;2.85;;
24157;SDS011;12316;50.904;4.200;2023-02-02T07:27:52;15.52;;;2.90;;
24157;SDS011;12316;50.904;4.200;2023-02-02T07:30:19;11.15;;;2.38;;
24157;SDS011;12316;50.904;4.200;2023-02-02T07:32:45;15.00;;;2.60;;
24157;SDS011;12316;50.904;4.200;2023-02-02T07:35:15;22.83;;;3.25;;
24157;SDS011;12316;50.904;4.200;2023-02-02T07:37:41;13.05;;;2.90;;
24157;SDS011;12316;50.904;4.200;2023-02-02T07:40:07;21.10;;;3.10;;
24157;SDS011;12316;50.904;4.200;2023-02-02T07:42:34;18.40;;;3.00;;
24157;SDS011;12316;50.904;4.200;2023-02-02T07:45:01;13.02;;;2.65;;
24157;SDS011;12316;50.904;4.200;2023-02-02T07:47:27;14.35;;;3.13;;
24157;SDS011;12316;50.904;4.200;2023-02-02T07:49:52;11.82;;;2.65;;
24157;SDS011;12316;50.904;4.200;2023-02-02T07:52:18;18.42;;;3.35;;
24157;SDS011;12316;50.904;4.200;2023-02-02T07:54:44;13.98;;;2.40;;
24157;SDS011;12316;50.904;4.200;2023-02-02T07:57:09;12.48;;;2.63;;
24157;SDS011;12316;50.904;4.200;2023-02-02T07:59:37;12.55;;;2.45;;
24157;SDS011;12316;50.904;4.200;2023-02-02T08:02:02;11.27;;;2.42;;
24157;SDS011;12316;50.904;4.200;2023-02-02T08:04:28;12.57;;;2.55;;
24157;SDS011;12316;50.904;4.200;2023-02-02T08:06:54;19.08;;;2.97;;
24157;SDS011;12316;50.904;4.200;2023-02-02T08:09:19;13.52;;;3.05;;
24157;SDS011;12316;50.904;4.200;2023-02-02T08:11:45;12.93;;;2.30;;
24157;SDS011;12316;50.904;4.200;2023-02-02T08:14:11;13.70;;;2.50;;
24157;SDS011;12316;50.904;4.200;2023-02-02T08:16:37;11.55;;;2.40;;
24157;SDS011;12316;50.904;4.200;2023-02-02T08:19:03;15.15;;;2.60;;
24157;SDS011;12316;50.904;4.200;2023-02-02T08:21:31;17.13;;;2.63;;
24157;SDS011;12316;50.904;4.200;2023-02-02T08:23:58;15.68;;;3.08;;
24157;SDS011;12316;50.904;4.200;2023-02-02T08:26:25;14.10;;;2.42;;
24157;SDS011;12316;50.904;4.200;2023-02-02T08:28:53;10.90;;;2.28;;
24157;SDS011;12316;50.904;4.200;2023-02-02T08:31:31;11.05;;;2.60;;
24157;SDS011;12316;50.904;4.200;2023-02-02T08:34:02;13.38;;;2.70;;
24157;SDS011;12316;50.904;4.200;2023-02-02T08:36:28;12.60;;;2.35;;
24157;SDS011;12316;50.904;4.200;2023-02-02T08:38:55;14.98;;;2.70;;
24157;SDS011;12316;50.904;4.200;2023-02-02T08:41:24;13.48;;;2.40;;
24157;SDS011;12316;50.904;4.200;2023-02-02T08:43:49;11.80;;;2.88;;
24157;SDS011;12316;50.904;4.200;2023-02-02T08:46:16;11.10;;;2.53;;
24157;SDS011;12316;50.904;4.200;2023-02-02T08:48:42;13.38;;;2.55;;
24157;SDS011;12316;50.904;4.200;2023-02-02T08:51:10;12.10;;;2.70;;
24157;SDS011;12316;50.904;4.200;2023-02-02T08:53:38;13.48;;;2.58;;
24157;SDS011;12316;50.904;4.200;2023-02-02T08:56:05;11.10;;;2.38;;
24157;SDS011;12316;50.904;4.200;2023-02-02T08:58:33;13.98;;;2.55;;
24157;SDS011;12316;50.904;4.200;2023-02-02T09:01:06;15.13;;;2.90;;
24157;SDS011;12316;50.904;4.200;2023-02-02T09:03:40;13.73;;;3.03;;
24157;SDS011;12316;50.904;4.200;2023-02-02T09:06:06;14.38;;;2.55;;
24157;SDS011;12316;50.904;4.200;2023-02-02T09:08:34;12.50;;;2.58;;
24157;SDS011;12316;50.904;4.200;2023-02-02T09:11:06;13.85;;;2.70;;
24157;SDS011;12316;50.904;4.200;2023-02-02T09:13:36;16.80;;;2.88;;
24157;SDS011;12316;50.904;4.200;2023-02-02T09:16:04;12.85;;;2.88;;
24157;SDS011;12316;50.904;4.200;2023-02-02T09:18:31;11.40;;;2.58;;
24157;SDS011;12316;50.904;4.200;2023-02-02T09:21:01;12.32;;;2.40;;
24157;SDS011;12316;50.904;4.200;2023-02-02T09:23:30;14.32;;;3.08;;
24157;SDS011;12316;50.904;4.200;2023-02-02T09:25:57;13.07;;;2.53;;
24157;SDS011;12316;50.904;4.200;2023-02-02T09:28:32;10.40;;;2.45;;
24157;SDS011;12316;50.904;4.200;2023-02-02T09:30:59;11.43;;;2.50;;
24157;SDS011;12316;50.904;4.200;2023-02-02T09:33:26;16.65;;;2.70;;
24157;SDS011;12316;50.904;4.200;2023-02-02T09:35:51;12.60;;;2.47;;
24157;SDS011;12316;50.904;4.200;2023-02-02T09:38:17;12.50;;;2.40;;
24157;SDS011;12316;50.904;4.200;2023-02-02T09:40:42;12.88;;;2.60;;
24157;SDS011;12316;50.904;4.200;2023-02-02T09:46:02;10.65;;;2.75;;
24157;SDS011;12316;50.904;4.200;2023-02-02T09:49:01;12.65;;;2.50;;
24157;SDS011;12316;50.904;4.200;2023-02-02T09:51:33;18.80;;;3.03;;
24157;SDS011;12316;50.904;4.200;2023-02-02T09:54:12;11.48;;;2.78;;
24157;SDS011;12316;50.904;4.200;2023-02-02T09:56:40;11.40;;;2.65;;
24157;SDS011;12316;50.904;4.200;2023-02-02T09:59:12;10.30;;;2.65;;
24157;SDS011;12316;50.904;4.200;2023-02-02T10:01:42;14.50;;;3.08;;
24157;SDS011;12316;50.904;4.200;2023-02-02T10:04:16;10.43;;;2.78;;
24157;SDS011;12316;50.904;4.200;2023-02-02T10:06:48;12.07;;;2.53;;
24157;SDS011;12316;50.904;4.200;2023-02-02T10:12:32;13.05;;;2.58;;
24157;SDS011;12316;50.904;4.200;2023-02-02T10:15:10;10.70;;;2.38;;
24157;SDS011;12316;50.904;4.200;2023-02-02T10:22:48;17.60;;;2.80;;
24157;SDS011;12316;50.904;4.200;2023-02-02T10:25:15;13.65;;;2.70;;
24157;SDS011;12316;50.904;4.200;2023-02-02T10:27:44;12.93;;;2.72;;
24157;SDS011;12316;50.904;4.200;2023-02-02T10:30:24;11.43;;;2.50;;
24157;SDS011;12316;50.904;4.200;2023-02-02T10:35:48;12.90;;;2.70;;
24157;SDS011;12316;50.904;4.200;2023-02-02T10:44:03;12.52;;;2.63;;
24157;SDS011;12316;50.904;4.200;2023-02-02T10:46:35;10.20;;;2.53;;
24157;SDS011;12316;50.904;4.200;2023-02-02T10:54:46;9.40;;;2.70;;
24157;SDS011;12316;50.904;4.200;2023-02-02T11:00:05;14.60;;;2.30;;
24157;SDS011;12316;50.904;4.200;2023-02-02T11:02:35;12.60;;;2.60;;
24157;SDS011;12316;50.904;4.200;2023-02-02T11:05:00;12.73;;;2.38;;
24157;SDS011;12316;50.904;4.200;2023-02-02T11:07:55;10.93;;;2.67;;
24157;SDS011;12316;50.904;4.200;2023-02-02T11:10:21;12.75;;;2.17;;
24157;SDS011;12316;50.904;4.200;2023-02-02T11:12:47;10.27;;;2.63;;
24157;SDS011;12316;50.904;4.200;2023-02-02T11:15:27;14.13;;;3.10;;
24157;SDS011;12316;50.904;4.200;2023-02-02T11:17:54;12.48;;;2.70;;
24157;SDS011;12316;50.904;4.200;2023-02-02T11:20:32;8.98;;;2.22;;
24157;SDS011;12316;50.904;4.200;2023-02-02T11:23:01;9.93;;;2.20;;
24157;SDS011;12316;50.904;4.200;2023-02-02T11:25:32;11.55;;;2.70;;
24157;SDS011;12316;50.904;4.200;2023-02-02T11:28:09;10.85;;;2.20;;
24157;SDS011;12316;50.904;4.200;2023-02-02T11:30:47;14.70;;;2.80;;
24157;SDS011;12316;50.904;4.200;2023-02-02T11:36:02;9.10;;;2.40;;
24157;SDS011;12316;50.904;4.200;2023-02-02T11:38:30;10.88;;;2.30;;
24157;SDS011;12316;50.904;4.200;2023-02-02T11:40:57;12.27;;;2.72;;
24157;SDS011;12316;50.904;4.200;2023-02-02T11:43:46;9.82;;;2.60;;
24157;SDS011;12316;50.904;4.200;2023-02-02T11:46:20;8.43;;;2.50;;
24157;SDS011;12316;50.904;4.200;2023-02-02T11:49:36;8.15;;;2.15;;
24157;SDS011;12316;50.904;4.200;2023-02-02T11:51:43;14.52;;;2.85;;
24157;SDS011;12316;50.904;4.200;2023-02-02T11:54:27;9.35;;;2.45;;
24157;SDS011;12316;50.904;4.200;2023-02-02T11:56:56;13.32;;;2.47;;
24157;SDS011;12316;50.904;4.200;2023-02-02T12:04:53;11.10;;;2.50;;
24157;SDS011;12316;50.904;4.200;2023-02-02T12:07:32;11.50;;;2.33;;
24157;SDS011;12316;50.904;4.200;2023-02-02T12:10:12;8.60;;;2.17;;
24157;SDS011;12316;50.904;4.200;2023-02-02T12:13:06;5.88;;;1.90;;
24157;SDS011;12316;50.904;4.200;2023-02-02T12:18:57;9.98;;;2.30;;
24157;SDS011;12316;50.904;4.200;2023-02-02T12:21:57;10.48;;;2.00;;
24157;SDS011;12316;50.904;4.200;2023-02-02T12:26:56;5.30;;;2.20;;
24157;SDS011;12316;50.904;4.200;2023-02-02T12:40:45;6.68;;;2.30;;
24157;SDS011;12316;50.904;4.200;2023-02-02T12:56:24;7.05;;;2.35;;
24157;SDS011;12316;50.904;4.200;2023-02-02T13:02:15;6.65;;;2.15;;
24157;SDS011;12316;50.904;4.200;2023-02-02T13:05:22;6.50;;;2.03;;
24157;SDS011;12316;50.904;4.200;2023-02-02T13:07:54;8.82;;;2.45;;
24157;SDS011;12316;50.904;4.200;2023-02-02T13:10:30;6.35;;;2.20;;
24157;SDS011;12316;50.904;4.200;2023-02-02T13:15:41;7.65;;;2.30;;
24157;SDS011;12316;50.904;4.200;2023-02-02T13:18:13;8.40;;;2.10;;
24157;SDS011;12316;50.904;4.200;2023-02-02T13:20:50;11.35;;;3.00;;
24157;SDS011;12316;50.904;4.200;2023-02-02T13:23:23;8.45;;;2.70;;
24157;SDS011;12316;50.904;4.200;2023-02-02T13:28:41;10.77;;;2.58;;
24157;SDS011;12316;50.904;4.200;2023-02-02T13:34:13;14.30;;;2.70;;
24157;SDS011;12316;50.904;4.200;2023-02-02T13:36:57;8.77;;;2.58;;
24157;SDS011;12316;50.904;4.200;2023-02-02T13:39:34;12.77;;;2.50;;
24157;SDS011;12316;50.904;4.200;2023-02-02T13:42:03;9.40;;;2.20;;
24157;SDS011;12316;50.904;4.200;2023-02-02T13:44:41;7.57;;;1.92;;
24157;SDS011;12316;50.904;4.200;2023-02-02T13:47:22;5.43;;;2.15;;
24157;SDS011;12316;50.904;4.200;2023-02-02T13:49:55;5.78;;;1.77;;
24157;SDS011;12316;50.904;4.200;2023-02-02T13:52:38;9.27;;;2.35;;
24157;SDS011;12316;50.904;4.200;2023-02-02T13:55:19;10.02;;;2.10;;
24157;SDS011;12316;50.904;4.200;2023-02-02T13:58:36;6.65;;;1.88;;
24157;SDS011;12316;50.904;4.200;2023-02-02T14:01:12;8.93;;;2.35;;
24157;SDS011;12316;50.904;4.200;2023-02-02T14:03:42;13.32;;;2.28;;
24157;SDS011;12316;50.904;4.200;2023-02-02T14:06:16;7.80;;;2.30;;
24157;SDS011;12316;50.904;4.200;2023-02-02T14:08:54;6.68;;;1.77;;
24157;SDS011;12316;50.904;4.200;2023-02-02T14:11:26;8.50;;;2.25;;
24157;SDS011;12316;50.904;4.200;2023-02-02T14:13:58;8.93;;;2.20;;
24157;SDS011;12316;50.904;4.200;2023-02-02T14:16:52;11.25;;;2.53;;
24157;SDS011;12316;50.904;4.200;2023-02-02T14:27:00;8.68;;;2.53;;
24157;SDS011;12316;50.904;4.200;2023-02-02T14:34:30;7.45;;;2.60;;
24157;SDS011;12316;50.904;4.200;2023-02-02T14:42:41;11.38;;;2.50;;
24157;SDS011;12316;50.904;4.200;2023-02-02T14:45:38;11.77;;;2.60;;
24157;SDS011;12316;50.904;4.200;2023-02-02T14:53:06;10.48;;;2.88;;
24157;SDS011;12316;50.904;4.200;2023-02-02T14:55:58;9.02;;;2.50;;
24157;SDS011;12316;50.904;4.200;2023-02-02T14:58:37;8.55;;;2.42;;
24157;SDS011;12316;50.904;4.200;2023-02-02T15:01:09;9.13;;;2.70;;
24157;SDS011;12316;50.904;4.200;2023-02-02T15:03:44;7.57;;;2.55;;
24157;SDS011;12316;50.904;4.200;2023-02-02T15:06:23;6.10;;;2.40;;
24157;SDS011;12316;50.904;4.200;2023-02-02T15:09:44;9.45;;;2.72;;
24157;SDS011;12316;50.904;4.200;2023-02-02T15:14:29;9.38;;;3.15;;
24157;SDS011;12316;50.904;4.200;2023-02-02T15:17:08;8.70;;;2.80;;
24157;SDS011;12316;50.904;4.200;2023-02-02T15:24:57;10.13;;;2.90;;
24157;SDS011;12316;50.904;4.200;2023-02-02T15:27:26;11.60;;;2.97;;
24157;SDS011;12316;50.904;4.200;2023-02-02T15:29:57;7.55;;;2.60;;
24157;SDS011;12316;50.904;4.200;2023-02-02T15:32:28;13.43;;;3.10;;
24157;SDS011;12316;50.904;4.200;2023-02-02T15:34:58;10.70;;;2.65;;
24157;SDS011;12316;50.904;4.200;2023-02-02T15:37:29;9.68;;;2.70;;
24157;SDS011;12316;50.904;4.200;2023-02-02T15:40:04;11.00;;;2.80;;
24157;SDS011;12316;50.904;4.200;2023-02-02T15:42:46;11.32;;;2.88;;
24157;SDS011;12316;50.904;4.200;2023-02-02T15:45:32;6.45;;;2.63;;
24157;SDS011;12316;50.904;4.200;2023-02-02T15:47:59;11.98;;;3.40;;
24157;SDS011;12316;50.904;4.200;2023-02-02T15:50:28;9.15;;;2.83;;
24157;SDS011;12316;50.904;4.200;2023-02-02T15:52:53;9.60;;;3.00;;
24157;SDS011;12316;50.904;4.200;2023-02-02T15:55:20;12.18;;;2.63;;
24157;SDS011;12316;50.904;4.200;2023-02-02T15:57:52;10.77;;;2.78;;
24157;SDS011;12316;50.904;4.200;2023-02-02T16:00:29;13.50;;;3.20;;
24157;SDS011;12316;50.904;4.200;2023-02-02T16:08:00;11.00;;;3.55;;
24157;SDS011;12316;50.904;4.200;2023-02-02T16:10:28;12.30;;;3.22;;
24157;SDS011;12316;50.904;4.200;2023-02-02T16:12:54;11.20;;;3.13;;
24157;SDS011;12316;50.904;4.200;2023-02-02T16:15:22;7.65;;;2.90;;
24157;SDS011;12316;50.904;4.200;2023-02-02T16:20:30;8.88;;;3.00;;
24157;SDS011;12316;50.904;4.200;2023-02-02T16:22:57;10.27;;;3.08;;
24157;SDS011;12316;50.904;4.200;2023-02-02T16:25:26;10.10;;;3.25;;
24157;SDS011;12316;50.904;4.200;2023-02-02T16:30:35;10.32;;;3.05;;
24157;SDS011;12316;50.904;4.200;2023-02-02T16:35:50;7.40;;;2.88;;
24157;SDS011;12316;50.904;4.200;2023-02-02T16:40:42;8.13;;;2.92;;
24157;SDS011;12316;50.904;4.200;2023-02-02T16:43:25;9.70;;;3.28;;
24157;SDS011;12316;50.904;4.200;2023-02-02T16:45:56;13.00;;;3.55;;
24157;SDS011;12316;50.904;4.200;2023-02-02T16:48:56;11.85;;;3.20;;
24157;SDS011;12316;50.904;4.200;2023-02-02T16:51:25;9.63;;;3.17;;
24157;SDS011;12316;50.904;4.200;2023-02-02T16:56:38;10.38;;;3.65;;
24157;SDS011;12316;50.904;4.200;2023-02-02T17:04:45;7.95;;;3.70;;
24157;SDS011;12316;50.904;4.200;2023-02-02T17:07:13;8.90;;;3.90;;
24157;SDS011;12316;50.904;4.200;2023-02-02T17:09:44;8.32;;;3.40;;
24157;SDS011;12316;50.904;4.200;2023-02-02T17:14:57;10.65;;;4.15;;
24157;SDS011;12316;50.904;4.200;2023-02-02T17:17:26;9.43;;;3.80;;
24157;SDS011;12316;50.904;4.200;2023-02-02T17:19:51;9.13;;;3.70;;
24157;SDS011;12316;50.904;4.200;2023-02-02T17:22:18;12.00;;;3.80;;
24157;SDS011;12316;50.904;4.200;2023-02-02T17:24:47;10.23;;;4.00;;
24157;SDS011;12316;50.904;4.200;2023-02-02T17:27:20;11.07;;;4.00;;
24157;SDS011;12316;50.904;4.200;2023-02-02T17:29:51;11.57;;;3.72;;